Time;durP1;ratioP1;P1;durP2;ratioP2;P2;SDS_P1;SDS_P2;PMS_P1;PMS_P2;Temp;Humidity;BMP_temperature;BMP_pressure;BME280_temperature;BME280_humidity;BME280_pressure;Samples;Min_cycle;Max_cycle;Signal;HPM_P1;HPM_P2
2022/05/22 00:00:42;;;;;;;;;;;;;;;25.16;30.04;99076.53;4475044;32;34331;-82
2022/05/22 00:03:10;;;;;;;;;;;;;;;24.85;30.90;99080.59;4464863;32;34660;-83
2022/05/22 00:05:37;;;;;;;;;;;;;;;25.00;30.75;99074.56;4471193;32;34441;-84
2022/05/22 00:08:07;;;;;;;;;;;;;;;25.31;30.50;99064.31;4483004;32;34902;-84
2022/05/22 00:10:35;;;;;;;;;;;;;;;25.24;30.45;99071.69;4480209;32;34209;-84
2022/05/22 00:13:02;;;;;;;;;;;;;;;25.27;30.56;99068.91;4482232;32;33711;-84
2022/05/22 00:15:29;;;;;;;;;;;;;;;24.92;30.68;99065.25;4463312;32;33996;-83
2022/05/22 00:17:57;;;;;;;;;;;;;;;25.42;30.39;99061.94;4488312;31;34970;-83
2022/05/22 00:20:24;;;;;;;;;;;;;;;25.27;30.57;99057.41;4489262;31;34168;-83
2022/05/22 00:22:51;;;;;;;;;;;;;;;25.27;30.45;99052.09;4479892;32;34773;-84
2022/05/22 00:25:19;;;;;;;;;;;;;;;25.46;30.47;99052.94;4469495;32;33019;-85
2022/05/22 00:27:46;;;;;;;;;;;;;;;25.28;30.54;99054.69;4478340;32;33871;-82
2022/05/22 00:30:14;;;;;;;;;;;;;;;25.00;30.99;99049.81;4469464;32;34479;-83
2022/05/22 00:32:45;;;;;;;;;;;;;;;24.90;31.14;99048.56;4468087;32;34302;-83
2022/05/22 00:35:13;;;;;;;;;;;;;;;24.60;31.07;99043.75;4455031;32;34306;-83
2022/05/22 00:37:40;;;;;;;;;;;;;;;24.84;31.26;99043.53;4472069;32;34003;-81
2022/05/22 00:40:26;;;;;;;;;;;;;;;24.74;31.20;99048.44;4468329;32;34791;-83
2022/05/22 00:42:53;;;;;;;;;;;;;;;24.37;31.19;99054.53;4468180;32;34246;-83
2022/05/22 00:45:20;;;;;;;;;;;;;;;24.62;31.06;99048.97;4469611;32;34165;-82
2022/05/22 00:47:54;;;;;;;;;;;;;;;24.62;31.11;99049.84;4480734;32;34346;-83
2022/05/22 00:50:22;;;;;;;;;;;;;;;24.68;30.27;99052.22;4473031;32;35221;-82
2022/05/22 00:52:53;;;;;;;;;;;;;;;24.51;30.46;99055.66;4454834;32;34748;-82
2022/05/22 00:55:21;;;;;;;;;;;;;;;24.38;31.45;99051.81;4467737;32;34229;-82
2022/05/22 00:57:50;;;;;;;;;;;;;;;24.71;30.55;99054.72;4467761;32;35048;-84
2022/05/22 01:00:19;;;;;;;;;;;;;;;24.57;30.78;99049.19;4482413;32;32515;-82
2022/05/22 01:05:35;;;;;;;;;;;;;;;25.05;29.91;99047.81;4479614;32;33555;-83
2022/05/22 01:08:03;;;;;;;;;;;;;;;24.63;30.93;99045.41;4453910;32;34199;-82
2022/05/22 01:10:40;;;;;;;;;;;;;;;24.81;30.66;99043.66;4468291;32;33992;-82
2022/05/22 01:13:08;;;;;;;;;;;;;;;24.68;30.73;99038.09;4453587;32;34305;-82
2022/05/22 01:15:35;;;;;;;;;;;;;;;24.65;30.94;99030.28;4469328;32;34150;-82
2022/05/22 01:18:03;;;;;;;;;;;;;;;24.78;31.00;99039.41;4467902;32;34683;-83
2022/05/22 01:20:30;;;;;;;;;;;;;;;24.82;31.30;99040.13;4478494;32;35147;-83
2022/05/22 01:22:57;;;;;;;;;;;;;;;25.06;30.83;99041.56;4473210;32;34069;-82
2022/05/22 01:25:25;;;;;;;;;;;;;;;24.81;30.41;99043.66;4483228;32;33382;-82
2022/05/22 01:27:53;;;;;;;;;;;;;;;24.88;30.45;99037.16;4483568;32;34274;-82
2022/05/22 01:30:22;;;;;;;;;;;;;;;24.38;31.32;99037.69;4469085;32;34368;-82
2022/05/22 01:32:50;;;;;;;;;;;;;;;24.86;30.86;99031.06;4465996;32;34948;-83
2022/05/22 01:35:22;;;;;;;;;;;;;;;24.96;30.81;99037.62;4469182;32;33279;-82
2022/05/22 01:37:52;;;;;;;;;;;;;;;24.54;31.07;99029.91;4483619;32;33729;-83
2022/05/22 01:40:20;;;;;;;;;;;;;;;25.07;30.84;99035.31;4483521;31;34501;-82
2022/05/22 01:42:48;;;;;;;;;;;;;;;25.00;30.80;99037.44;4482906;32;34388;-82
2022/05/22 01:45:18;;;;;;;;;;;;;;;25.08;30.30;99034.41;4482532;32;33004;-82
2022/05/22 01:47:45;;;;;;;;;;;;;;;24.74;30.89;99030.72;4467443;32;35159;-83
2022/05/22 01:50:13;;;;;;;;;;;;;;;24.74;30.36;99038.69;4467529;32;34145;-83
2022/05/22 01:52:41;;;;;;;;;;;;;;;24.79;30.77;99042.91;4467490;32;34994;-82
2022/05/22 01:55:10;;;;;;;;;;;;;;;24.57;30.92;99043.91;4454347;32;33542;-83
2022/05/22 01:57:38;;;;;;;;;;;;;;;24.49;30.57;99043.41;4467704;32;33769;-82
2022/05/22 02:00:07;;;;;;;;;;;;;;;24.93;29.98;99037.81;4453722;32;34550;-82
2022/05/22 02:02:42;;;;;;;;;;;;;;;24.69;31.58;99037.16;4467663;32;34137;-83
2022/05/22 02:05:10;;;;;;;;;;;;;;;24.98;30.23;99031.34;4468426;32;33603;-82
2022/05/22 02:10:24;;;;;;;;;;;;;;;25.31;30.01;99028.00;4465771;32;34051;-81
2022/05/22 02:12:54;;;;;;;;;;;;;;;25.10;30.43;99032.56;4462324;32;34205;-81
2022/05/22 02:15:21;;;;;;;;;;;;;;;25.17;30.17;99025.16;4467223;32;34689;-81
2022/05/22 02:17:49;;;;;;;;;;;;;;;25.15;30.20;99030.53;4483145;32;34309;-82
2022/05/22 02:20:16;;;;;;;;;;;;;;;25.30;29.95;99023.63;4482909;32;34195;-83
2022/05/22 02:22:50;;;;;;;;;;;;;;;25.19;30.03;99023.28;4482129;32;33773;-82
2022/05/22 02:25:28;;;;;;;;;;;;;;;25.32;30.05;99031.53;4467113;32;33439;-82
2022/05/22 02:27:56;;;;;;;;;;;;;;;25.20;30.12;99020.56;4467074;32;34309;-82
2022/05/22 02:30:25;;;;;;;;;;;;;;;24.43;30.44;99033.06;4453480;32;34064;-83
2022/05/22 02:32:52;;;;;;;;;;;;;;;23.64;31.47;99030.34;4453035;32;34621;-82
2022/05/22 02:35:21;;;;;;;;;;;;;;;24.20;30.90;99032.28;4470829;32;34393;-81
2022/05/22 02:37:53;;;;;;;;;;;;;;;24.09;31.14;99031.91;4481989;32;34373;-82
2022/05/22 02:40:23;;;;;;;;;;;;;;;23.76;32.00;99037.78;4467857;32;34216;-83
2022/05/22 02:42:51;;;;;;;;;;;;;;;23.58;31.83;99043.81;4483510;32;34152;-82
2022/05/22 02:45:20;;;;;;;;;;;;;;;23.53;32.24;99038.72;4470516;32;34179;-82
2022/05/22 02:47:48;;;;;;;;;;;;;;;23.22;32.66;99030.31;4484196;32;35328;-82
2022/05/22 02:50:17;;;;;;;;;;;;;;;23.10;32.71;99036.97;4472142;32;33930;-82
2022/05/22 02:52:44;;;;;;;;;;;;;;;21.65;35.08;99040.56;4477427;32;34861;-82
2022/05/22 02:55:13;;;;;;;;;;;;;;;22.08;34.30;99036.41;4483891;32;34240;-82
2022/05/22 02:57:40;;;;;;;;;;;;;;;22.72;33.14;99041.94;4469897;32;34645;-82
2022/05/22 03:00:10;;;;;;;;;;;;;;;22.69;32.99;99038.56;4475870;31;33438;-83
2022/05/22 03:02:37;;;;;;;;;;;;;;;22.59;33.07;99044.22;4470046;32;34053;-82
2022/05/22 03:05:05;;;;;;;;;;;;;;;22.68;33.16;99035.06;4484774;32;33501;-82
2022/05/22 03:07:34;;;;;;;;;;;;;;;22.56;33.45;99044.31;4456688;32;34257;-82
2022/05/22 03:10:08;;;;;;;;;;;;;;;23.04;31.84;99043.38;4469489;32;34117;-80
2022/05/22 03:12:36;;;;;;;;;;;;;;;22.19;33.73;99039.56;4469162;32;34187;-82
2022/05/22 03:15:04;;;;;;;;;;;;;;;22.26;33.70;99043.69;4484628;31;33481;-82
2022/05/22 03:17:34;;;;;;;;;;;;;;;22.78;32.31;99040.87;4460219;32;34814;-82
2022/05/22 03:20:02;;;;;;;;;;;;;;;21.11;35.22;99044.09;4469966;32;35299;-81
2022/05/22 03:22:31;;;;;;;;;;;;;;;21.13;34.79;99037.84;4484347;31;34011;-81
2022/05/22 03:24:59;;;;;;;;;;;;;;;22.17;32.96;99041.41;4484068;32;34420;-83
2022/05/22 03:27:26;;;;;;;;;;;;;;;21.43;34.11;99037.78;4471742;32;33689;-82
2022/05/22 03:29:54;;;;;;;;;;;;;;;21.12;34.09;99037.91;4468929;32;35258;-81
2022/05/22 03:32:21;;;;;;;;;;;;;;;21.74;33.64;99034.09;4468898;32;34194;-82
2022/05/22 03:34:55;;;;;;;;;;;;;;;21.48;34.26;99038.50;4455213;32;34273;-83
2022/05/22 03:37:24;;;;;;;;;;;;;;;21.09;34.89;99033.59;4465719;32;35044;-82
2022/05/22 03:39:53;;;;;;;;;;;;;;;21.43;34.12;99031.66;4483477;32;34340;-82
2022/05/22 03:42:21;;;;;;;;;;;;;;;22.33;33.08;99047.84;4484386;32;33833;-83
2022/05/22 03:44:48;;;;;;;;;;;;;;;23.07;31.28;99042.41;4469769;32;33082;-82
2022/05/22 03:47:16;;;;;;;;;;;;;;;22.70;32.94;99056.16;4475998;32;34204;-83
2022/05/22 03:49:47;;;;;;;;;;;;;;;23.03;32.21;99051.34;4468846;32;34487;-82
2022/05/22 03:52:16;;;;;;;;;;;;;;;22.74;33.23;99065.69;4469352;32;34169;-82
2022/05/22 03:54:43;;;;;;;;;;;;;;;22.22;33.30;99063.22;4454625;32;33449;-82
2022/05/22 03:57:11;;;;;;;;;;;;;;;21.75;34.12;99062.22;4468126;32;34982;-82
2022/05/22 03:59:40;;;;;;;;;;;;;;;22.14;33.72;99070.56;4468758;32;34280;-82
2022/05/22 04:02:07;;;;;;;;;;;;;;;22.09;33.55;99067.19;4468689;32;34210;-82
2022/05/22 04:04:36;;;;;;;;;;;;;;;22.11;33.70;99070.63;4468304;32;33458;-82
2022/05/22 04:07:04;;;;;;;;;;;;;;;22.43;33.16;99071.28;4468502;32;33852;-82
2022/05/22 04:09:32;;;;;;;;;;;;;;;21.92;34.10;99074.84;4468458;32;35045;-81
2022/05/22 04:12:00;;;;;;;;;;;;;;;22.34;33.37;99068.03;4468352;32;35293;-82
2022/05/22 04:14:27;;;;;;;;;;;;;;;22.94;32.26;99070.25;4468458;32;33595;-82
2022/05/22 04:16:56;;;;;;;;;;;;;;;21.87;34.26;99075.84;4468511;32;34997;-82
2022/05/22 04:19:23;;;;;;;;;;;;;;;21.90;34.20;99076.69;4477077;32;35413;-81
2022/05/22 04:21:51;;;;;;;;;;;;;;;22.46;32.96;99074.66;4475952;32;35525;-85
2022/05/22 04:27:06;;;;;;;;;;;;;;;21.11;36.23;99076.59;4483386;32;34238;-83
2022/05/22 04:29:35;;;;;;;;;;;;;;;21.63;35.02;99079.34;4469522;32;34399;-83
2022/05/22 04:32:03;;;;;;;;;;;;;;;21.52;35.38;99076.19;4483752;32;33952;-84
2022/05/22 04:34:30;;;;;;;;;;;;;;;21.67;35.43;99075.69;4469365;32;33025;-83
2022/05/22 04:36:59;;;;;;;;;;;;;;;20.88;36.46;99079.94;4478019;32;34994;-81
2022/05/22 04:39:27;;;;;;;;;;;;;;;22.27;34.07;99079.75;4468171;32;33575;-82
2022/05/22 04:41:58;;;;;;;;;;;;;;;22.17;33.90;99075.72;4468333;32;34813;-82
2022/05/22 04:44:25;;;;;;;;;;;;;;;22.16;34.39;99078.41;4468346;32;32812;-83
2022/05/22 04:46:53;;;;;;;;;;;;;;;22.45;33.82;99075.56;4474955;32;34250;-82
2022/05/22 04:49:21;;;;;;;;;;;;;;;22.52;33.90;99076.22;4483651;32;35362;-83
2022/05/22 04:51:48;;;;;;;;;;;;;;;22.82;33.20;99080.34;4482779;32;34881;-82
2022/05/22 04:54:15;;;;;;;;;;;;;;;22.93;33.62;99076.47;4483246;32;33499;-82
2022/05/22 04:56:43;;;;;;;;;;;;;;;22.97;33.06;99078.91;4477238;32;34152;-82
2022/05/22 04:59:11;;;;;;;;;;;;;;;21.74;34.74;99081.59;4467933;32;35433;-82
2022/05/22 05:01:39;;;;;;;;;;;;;;;21.76;35.78;99079.78;4468171;32;34692;-82
2022/05/22 05:04:06;;;;;;;;;;;;;;;22.25;34.83;99078.94;4468015;32;33600;-81
2022/05/22 05:06:41;;;;;;;;;;;;;;;21.92;34.99;99073.06;4472781;32;34331;-82
2022/05/22 05:09:15;;;;;;;;;;;;;;;21.64;35.40;99074.94;4483576;32;34522;-82
2022/05/22 05:11:42;;;;;;;;;;;;;;;21.72;35.95;99073.75;4483540;31;34189;-82
2022/05/22 05:14:10;;;;;;;;;;;;;;;21.78;35.14;99075.28;4483832;31;33280;-83
2022/05/22 05:16:37;;;;;;;;;;;;;;;21.74;35.75;99077.19;4477489;32;34813;-82
2022/05/22 05:19:05;;;;;;;;;;;;;;;21.65;35.77;99077.50;4482054;31;34457;-83
2022/05/22 05:21:33;;;;;;;;;;;;;;;20.86;37.64;99081.75;4478752;32;34521;-82
2022/05/22 05:24:01;;;;;;;;;;;;;;;21.29;37.75;99079.53;4470880;32;33317;-81
2022/05/22 05:26:28;;;;;;;;;;;;;;;21.55;36.49;99076.06;4474543;32;34253;-82
2022/05/22 05:28:56;;;;;;;;;;;;;;;22.19;35.39;99073.88;4467837;32;34366;-82
2022/05/22 05:31:24;;;;;;;;;;;;;;;21.35;37.05;99088.16;4467975;32;34161;-82
2022/05/22 05:33:52;;;;;;;;;;;;;;;21.30;36.51;99084.78;4467517;32;33650;-83
2022/05/22 05:36:20;;;;;;;;;;;;;;;22.43;35.34;99088.00;4470479;32;33858;-83
2022/05/22 05:38:48;;;;;;;;;;;;;;;22.49;34.71;99082.47;4483359;32;34060;-82
2022/05/22 05:41:27;;;;;;;;;;;;;;;21.74;37.38;99087.72;4483554;32;34563;-83
2022/05/22 05:43:54;;;;;;;;;;;;;;;22.50;35.29;99083.31;4482190;31;33303;-83
2022/05/22 05:46:22;;;;;;;;;;;;;;;21.77;36.30;99085.00;4472020;32;34171;-83
2022/05/22 05:48:51;;;;;;;;;;;;;;;21.88;35.95;99092.56;4483243;32;34905;-83
2022/05/22 05:51:19;;;;;;;;;;;;;;;21.72;37.37;99084.31;4480405;32;35228;-83
2022/05/22 05:53:48;;;;;;;;;;;;;;;22.32;35.49;99090.16;4469906;32;34479;-83
2022/05/22 05:56:17;;;;;;;;;;;;;;;22.20;37.00;99099.38;4478629;32;34024;-83
2022/05/22 05:58:52;;;;;;;;;;;;;;;21.77;36.49;99092.06;4459862;32;34254;-82
2022/05/22 06:01:21;;;;;;;;;;;;;;;21.77;36.18;99092.06;4469900;32;33966;-83
2022/05/22 06:03:48;;;;;;;;;;;;;;;22.03;35.71;99096.44;4476877;31;33303;-83
2022/05/22 06:06:16;;;;;;;;;;;;;;;21.85;36.32;99095.28;4478276;32;34617;-83
2022/05/22 06:08:44;;;;;;;;;;;;;;;22.24;36.07;99090.44;4471404;32;34499;-83
2022/05/22 06:11:15;;;;;;;;;;;;;;;22.01;36.35;99085.06;4467593;32;34928;-83
2022/05/22 06:13:43;;;;;;;;;;;;;;;23.40;34.33;99079.81;4476638;31;32979;-83
2022/05/22 06:16:10;;;;;;;;;;;;;;;23.49;33.71;99075.97;4468283;32;34708;-83
2022/05/22 06:18:38;;;;;;;;;;;;;;;23.60;33.42;99073.72;4481830;32;34370;-83
2022/05/22 06:21:09;;;;;;;;;;;;;;;23.81;33.87;99076.41;4480615;32;33513;-84
2022/05/22 06:23:38;;;;;;;;;;;;;;;23.91;32.13;99083.06;4478583;32;33424;-84
2022/05/22 06:26:08;;;;;;;;;;;;;;;23.31;33.28;99083.72;4477115;32;34350;-82
2022/05/22 06:28:37;;;;;;;;;;;;;;;23.67;33.27;99080.50;4475434;32;34888;-82
2022/05/22 06:31:06;;;;;;;;;;;;;;;22.99;35.35;99084.13;4467182;32;34373;-83
2022/05/22 06:33:35;;;;;;;;;;;;;;;22.99;34.48;99081.47;4483120;32;34003;-82
2022/05/22 06:36:06;;;;;;;;;;;;;;;24.03;32.14;99079.88;4479838;31;33216;-82
2022/05/22 06:41:21;;;;;;;;;;;;;;;22.58;35.22;99081.28;4480963;32;34032;-85
2022/05/22 06:43:52;;;;;;;;;;;;;;;22.39;35.34;99082.84;4482524;32;34178;-81
2022/05/22 06:46:21;;;;;;;;;;;;;;;23.73;33.13;99080.25;4482554;32;33478;-86
2022/05/22 06:48:57;;;;;;;;;;;;;;;23.78;33.42;99088.84;4458094;32;34355;-83
2022/05/22 06:51:25;;;;;;;;;;;;;;;23.25;34.16;99083.94;4481461;31;33768;-84
2022/05/22 06:53:53;;;;;;;;;;;;;;;23.57;34.20;99086.22;4454425;32;33202;-84
2022/05/22 06:56:22;;;;;;;;;;;;;;;24.82;31.62;99085.19;4459525;32;35634;-84
2022/05/22 06:58:50;;;;;;;;;;;;;;;23.99;33.29;99080.94;4478713;32;34837;-84
2022/05/22 07:01:18;;;;;;;;;;;;;;;22.87;34.25;99087.22;4469507;32;34173;-84
2022/05/22 07:03:46;;;;;;;;;;;;;;;23.42;33.60;99070.06;4459515;32;33391;-82
2022/05/22 07:06:14;;;;;;;;;;;;;;;24.29;33.51;99068.12;4468562;32;34362;-82
2022/05/22 07:08:43;;;;;;;;;;;;;;;23.91;34.18;99073.31;4482144;32;35219;-82
2022/05/22 07:14:00;;;;;;;;;;;;;;;24.14;33.06;99063.50;4482052;32;34261;-82
2022/05/22 07:16:28;;;;;;;;;;;;;;;23.80;32.71;99059.69;4467929;32;34328;-81
2022/05/22 07:18:56;;;;;;;;;;;;;;;23.27;32.97;99060.97;4465000;32;34341;-84
2022/05/22 07:21:24;;;;;;;;;;;;;;;24.30;32.18;99058.38;4466222;32;34442;-85
2022/05/22 07:23:53;;;;;;;;;;;;;;;23.31;33.31;99067.00;4467072;32;34188;-83
2022/05/22 07:26:21;;;;;;;;;;;;;;;24.11;32.02;99059.19;4452479;32;33804;-82
2022/05/22 07:28:50;;;;;;;;;;;;;;;23.13;34.84;99051.84;4467312;32;33554;-83
2022/05/22 07:31:19;;;;;;;;;;;;;;;24.70;30.48;99063.63;4471619;32;33981;-83
2022/05/22 07:33:47;;;;;;;;;;;;;;;24.64;30.94;99047.13;4466450;32;33585;-84
2022/05/22 07:36:15;;;;;;;;;;;;;;;24.00;32.13;99057.00;4481911;32;33859;-85
2022/05/22 07:38:43;;;;;;;;;;;;;;;24.12;31.27;99050.31;4468634;32;34459;-82
2022/05/22 07:41:11;;;;;;;;;;;;;;;24.48;31.39;99058.44;4467824;31;34819;-88
2022/05/22 07:43:39;;;;;;;;;;;;;;;24.34;31.38;99050.22;4484161;32;33009;-83
2022/05/22 07:46:07;;;;;;;;;;;;;;;23.39;32.02;99050.81;4484614;32;35168;-86
2022/05/22 07:48:36;;;;;;;;;;;;;;;24.62;31.37;99044.53;4480467;32;34519;-83
2022/05/22 07:51:06;;;;;;;;;;;;;;;24.15;31.30;99044.88;4468065;32;33785;-86
2022/05/22 07:53:34;;;;;;;;;;;;;;;24.60;30.72;99045.56;4468363;32;32974;-84
2022/05/22 07:56:02;;;;;;;;;;;;;;;24.88;29.88;99034.50;4454565;32;34880;-82
2022/05/22 07:58:30;;;;;;;;;;;;;;;25.60;28.89;99034.50;4471035;31;34142;-82
2022/05/22 08:00:58;;;;;;;;;;;;;;;25.79;28.13;99033.59;4469607;32;34404;-82
2022/05/22 08:03:29;;;;;;;;;;;;;;;25.51;30.13;99034.13;4480550;32;34069;-82
2022/05/22 08:05:57;;;;;;;;;;;;;;;24.90;29.11;99033.50;4484249;32;35044;-83
2022/05/22 08:08:24;;;;;;;;;;;;;;;24.56;29.71;99036.88;4483252;32;34074;-84
2022/05/22 08:10:53;;;;;;;;;;;;;;;24.46;29.07;99032.94;4471417;32;34163;-84
2022/05/22 08:13:21;;;;;;;;;;;;;;;24.20;30.31;99037.59;4480917;32;34053;-89
2022/05/22 08:15:50;;;;;;;;;;;;;;;24.66;29.88;99026.69;4483565;32;34313;-86
2022/05/22 08:18:19;;;;;;;;;;;;;;;25.35;28.84;99016.31;4482925;32;34490;-83
2022/05/22 08:20:49;;;;;;;;;;;;;;;25.72;27.12;99012.66;4483855;32;34376;-82
2022/05/22 08:23:18;;;;;;;;;;;;;;;24.88;28.73;99014.12;4483274;32;33697;-87
2022/05/22 08:25:47;;;;;;;;;;;;;;;24.78;29.33;99019.97;4483966;32;34019;-87
2022/05/22 08:28:15;;;;;;;;;;;;;;;24.09;29.95;99021.31;4483474;32;35120;-85
2022/05/22 08:30:42;;;;;;;;;;;;;;;24.18;30.36;99017.41;4469430;32;34044;-84
2022/05/22 08:33:10;;;;;;;;;;;;;;;24.20;29.54;99008.44;4483443;32;34302;-84
2022/05/22 08:35:38;;;;;;;;;;;;;;;24.52;29.32;99008.81;4467634;32;34950;-83
2022/05/22 08:38:07;;;;;;;;;;;;;;;25.70;27.15;99001.22;4459006;32;34289;-82
2022/05/22 08:40:54;;;;;;;;;;;;;;;25.00;28.13;98996.78;4480921;31;33822;-81
2022/05/22 08:43:22;;;;;;;;;;;;;;;25.04;28.06;98998.38;4475366;32;34101;-84
2022/05/22 08:45:56;;;;;;;;;;;;;;;25.76;26.92;99001.84;4480153;32;32967;-85
2022/05/22 08:48:23;;;;;;;;;;;;;;;25.35;28.44;99002.19;4466454;32;34378;-87
2022/05/22 08:50:51;;;;;;;;;;;;;;;25.43;27.64;99005.31;4471718;32;34332;-82
2022/05/22 08:53:24;;;;;;;;;;;;;;;25.22;28.29;98996.59;4471408;32;33404;-87
2022/05/22 08:59:07;;;;;;;;;;;;;;;25.03;28.38;98987.81;4479463;32;35159;-81
2022/05/22 09:01:37;;;;;;;;;;;;;;;25.46;27.99;98989.22;4460340;32;35050;-81
2022/05/22 09:04:05;;;;;;;;;;;;;;;25.21;29.03;98982.50;4475032;32;33307;-81
2022/05/22 09:06:34;;;;;;;;;;;;;;;26.04;26.68;98990.66;4477174;32;34881;-81
2022/05/22 09:09:02;;;;;;;;;;;;;;;25.88;27.41;98983.50;4483410;32;34296;-84
2022/05/22 09:11:29;;;;;;;;;;;;;;;26.01;26.96;98988.16;4479959;32;34270;-81
2022/05/22 09:14:03;;;;;;;;;;;;;;;26.17;26.37;98976.62;4479952;32;33737;-80
2022/05/22 09:16:33;;;;;;;;;;;;;;;25.44;26.95;98969.84;4469184;32;34743;-80
2022/05/22 09:19:04;;;;;;;;;;;;;;;24.63;28.38;98964.09;4469353;32;33989;-87
2022/05/22 09:21:32;;;;;;;;;;;;;;;25.35;26.54;98970.34;4483361;32;34413;-84
2022/05/22 09:24:03;;;;;;;;;;;;;;;25.16;27.61;98965.09;4469357;32;34345;-86
2022/05/22 09:26:57;;;;;;;;;;;;;;;25.75;26.72;98953.19;4478218;32;34894;-79
2022/05/22 09:29:43;;;;;;;;;;;;;;;26.51;25.56;98952.69;4458754;32;35283;-84
2022/05/22 09:32:16;;;;;;;;;;;;;;;26.65;25.18;98955.44;4479586;31;34671;-83
2022/05/22 09:34:49;;;;;;;;;;;;;;;26.56;24.84;98946.19;4479768;32;33064;-79
2022/05/22 09:37:22;;;;;;;;;;;;;;;26.46;25.85;98947.63;4477130;32;35050;-82
2022/05/22 09:40:02;;;;;;;;;;;;;;;26.58;25.54;98954.06;4479240;32;35827;-89
2022/05/22 09:42:32;;;;;;;;;;;;;;;25.72;26.82;98951.56;4481847;32;34089;-84
2022/05/22 09:45:06;;;;;;;;;;;;;;;26.28;25.47;98948.63;4474110;31;33178;-81
2022/05/22 09:47:44;;;;;;;;;;;;;;;25.96;25.54;98948.56;4474317;31;34089;-80
2022/05/22 09:50:35;;;;;;;;;;;;;;;26.34;25.45;98942.97;4463339;32;34460;-79
2022/05/22 09:53:04;;;;;;;;;;;;;;;26.34;25.39;98932.34;4460092;32;33241;-80
2022/05/22 09:55:42;;;;;;;;;;;;;;;26.53;25.98;98940.19;4467675;32;34225;-85
2022/05/22 09:58:12;;;;;;;;;;;;;;;26.34;25.62;98949.16;4468772;32;33822;-81
2022/05/22 10:00:40;;;;;;;;;;;;;;;26.08;25.16;98934.63;4483068;32;35106;-82
2022/05/22 10:03:26;;;;;;;;;;;;;;;26.25;26.27;98927.53;4480793;32;35376;-87
2022/05/22 10:06:12;;;;;;;;;;;;;;;26.99;25.57;98926.91;4477995;32;33490;-81
2022/05/22 10:08:43;;;;;;;;;;;;;;;26.82;25.71;98927.88;4469582;32;33754;-83
2022/05/22 10:11:16;;;;;;;;;;;;;;;26.47;24.61;98930.72;4478720;32;33942;-79
2022/05/22 10:13:56;;;;;;;;;;;;;;;26.20;25.50;98918.00;4483347;32;33852;-78
2022/05/22 10:16:42;;;;;;;;;;;;;;;26.15;25.37;98925.38;4478269;32;34022;-79
2022/05/22 10:19:19;;;;;;;;;;;;;;;26.15;25.85;98922.72;4481660;31;34926;-79
2022/05/22 10:22:05;;;;;;;;;;;;;;;27.07;23.80;98924.66;4468533;32;34057;-79
2022/05/22 10:24:49;;;;;;;;;;;;;;;26.86;25.10;98918.78;4473776;32;33961;-88
2022/05/22 10:27:16;;;;;;;;;;;;;;;26.43;25.69;98914.06;4467395;32;34305;-84
2022/05/22 10:30:06;;;;;;;;;;;;;;;26.31;25.58;98908.59;4474468;32;34348;-88
2022/05/22 10:32:34;;;;;;;;;;;;;;;26.33;26.32;98901.38;4467919;32;35041;-81
2022/05/22 10:35:14;;;;;;;;;;;;;;;27.11;24.71;98895.13;4457889;32;32817;-80
2022/05/22 10:37:49;;;;;;;;;;;;;;;27.50;24.76;98893.69;4460307;32;33053;-80
2022/05/22 10:40:22;;;;;;;;;;;;;;;27.55;23.92;98894.28;4464703;32;35057;-80
2022/05/22 10:42:51;;;;;;;;;;;;;;;27.01;23.47;98895.72;4477842;32;35254;-80
2022/05/22 10:45:21;;;;;;;;;;;;;;;26.47;24.90;98887.34;4479974;32;34455;-81
2022/05/22 10:47:49;;;;;;;;;;;;;;;26.33;25.78;98893.41;4481673;32;34132;-79
2022/05/22 10:50:17;;;;;;;;;;;;;;;26.59;24.01;98900.78;4467945;32;34150;-85
2022/05/22 10:52:44;;;;;;;;;;;;;;;25.91;25.47;98900.12;4480421;31;34436;-79
2022/05/22 10:55:20;;;;;;;;;;;;;;;26.42;24.45;98884.94;4482018;31;34472;-82
2022/05/22 10:58:13;;;;;;;;;;;;;;;25.65;25.64;98899.72;4467755;32;33223;-85
2022/05/22 11:00:50;;;;;;;;;;;;;;;25.69;24.85;98906.59;4462006;32;34824;-84
2022/05/22 11:03:17;;;;;;;;;;;;;;;26.43;25.90;98902.56;4455047;32;33873;-85
2022/05/22 11:05:51;;;;;;;;;;;;;;;26.01;27.00;98912.00;4484126;31;33883;-82
2022/05/22 11:08:26;;;;;;;;;;;;;;;26.96;26.21;98917.28;4483510;32;33104;-90
2022/05/22 11:10:57;;;;;;;;;;;;;;;25.72;25.51;98917.06;4454611;32;35607;-83
2022/05/22 11:13:25;;;;;;;;;;;;;;;26.37;26.96;98900.28;4454942;32;35084;-81
2022/05/22 11:15:56;;;;;;;;;;;;;;;26.06;24.70;98896.66;4454866;32;34087;-81
2022/05/22 11:18:24;;;;;;;;;;;;;;;26.52;24.94;98894.13;4472529;32;33608;-83
2022/05/22 11:21:01;;;;;;;;;;;;;;;27.11;24.16;98904.94;4480534;32;33960;-86
2022/05/22 11:23:48;;;;;;;;;;;;;;;25.60;26.57;98904.41;4460769;32;35309;-89
2022/05/22 11:26:18;;;;;;;;;;;;;;;26.81;25.94;98887.13;4479687;32;34030;-79
2022/05/22 11:29:01;;;;;;;;;;;;;;;27.71;24.42;98883.53;4472508;32;33586;-88
2022/05/22 11:31:41;;;;;;;;;;;;;;;27.08;26.39;98887.28;4477696;32;34239;-93
2022/05/22 11:34:37;;;;;;;;;;;;;;;26.78;25.52;98873.13;4480571;32;35168;-87
2022/05/22 11:37:13;;;;;;;;;;;;;;;26.52;25.97;98888.81;4448265;32;34110;-81
2022/05/22 11:40:10;;;;;;;;;;;;;;;26.59;25.61;98886.63;4468521;32;33134;-87
2022/05/22 11:42:38;;;;;;;;;;;;;;;27.08;24.25;98873.13;4464358;32;33767;-84
2022/05/22 11:45:09;;;;;;;;;;;;;;;27.03;23.85;98873.41;4454486;32;34207;-81
2022/05/22 11:47:57;;;;;;;;;;;;;;;26.96;25.80;98874.72;4457163;32;34848;-79
2022/05/22 11:50:32;;;;;;;;;;;;;;;27.33;24.51;98872.56;4459398;32;33618;-81
2022/05/22 11:53:25;;;;;;;;;;;;;;;27.03;25.36;98873.41;4470244;32;35140;-79
2022/05/22 11:55:52;;;;;;;;;;;;;;;26.64;25.30;98864.19;4477307;32;34400;-81
2022/05/22 11:58:39;;;;;;;;;;;;;;;27.57;24.49;98870.19;4483824;32;34836;-81
2022/05/22 12:01:15;;;;;;;;;;;;;;;26.68;24.33;98868.38;4483825;32;34164;-81
2022/05/22 12:04:01;;;;;;;;;;;;;;;26.46;25.72;98853.75;4469122;32;34921;-81
2022/05/22 12:06:35;;;;;;;;;;;;;;;27.47;23.33;98853.97;4483661;32;34576;-83
2022/05/22 12:09:22;;;;;;;;;;;;;;;26.50;25.28;98847.31;4483376;32;33771;-81
2022/05/22 12:12:11;;;;;;;;;;;;;;;26.46;25.83;98846.62;4468393;32;34107;-84
2022/05/22 12:14:38;;;;;;;;;;;;;;;26.98;25.75;98835.59;4467566;32;33640;-81
2022/05/22 12:17:33;;;;;;;;;;;;;;;26.24;25.45;98846.09;4479976;32;34469;-84
2022/05/22 12:20:21;;;;;;;;;;;;;;;27.09;25.65;98837.63;4457225;31;34745;-82
2022/05/22 12:23:13;;;;;;;;;;;;;;;26.16;25.45;98839.41;4454309;32;32905;-80
2022/05/22 12:25:58;;;;;;;;;;;;;;;26.34;25.51;98834.84;4480586;32;33885;-80
2022/05/22 12:28:35;;;;;;;;;;;;;;;25.96;26.39;98845.00;4469963;32;34145;-81
2022/05/22 12:31:24;;;;;;;;;;;;;;;26.53;24.76;98824.06;4483724;31;34918;-82
2022/05/22 12:33:51;;;;;;;;;;;;;;;26.30;24.15;98816.53;4483566;32;33227;-87
2022/05/22 12:36:22;;;;;;;;;;;;;;;26.12;25.91;98827.25;4462145;32;34060;-80
2022/05/22 12:38:56;;;;;;;;;;;;;;;25.86;26.19;98841.97;4467231;32;34379;-81
2022/05/22 12:41:28;;;;;;;;;;;;;;;27.74;23.32;98824.78;4464052;32;34068;-92
2022/05/22 12:43:55;;;;;;;;;;;;;;;26.81;25.09;98823.28;4468139;32;34405;-81
2022/05/22 12:46:22;;;;;;;;;;;;;;;26.45;25.48;98831.59;4467740;32;35141;-89
2022/05/22 12:48:51;;;;;;;;;;;;;;;27.13;24.97;98831.19;4468566;32;34354;-81
2022/05/22 12:51:19;;;;;;;;;;;;;;;26.80;25.10;98815.41;4459137;32;34540;-80
2022/05/22 12:53:48;;;;;;;;;;;;;;;27.20;24.84;98821.91;4451122;32;33953;-81
2022/05/22 12:56:20;;;;;;;;;;;;;;;27.83;23.76;98816.19;4451836;32;34004;-82
2022/05/22 12:58:58;;;;;;;;;;;;;;;26.67;25.35;98818.81;4454231;32;37075;-82
2022/05/22 13:01:33;;;;;;;;;;;;;;;27.04;23.90;98810.41;4460984;32;34927;-82
2022/05/22 13:04:01;;;;;;;;;;;;;;;26.49;25.01;98813.69;4463863;32;33296;-90
2022/05/22 13:06:33;;;;;;;;;;;;;;;26.34;24.42;98813.59;4466482;32;35133;-88
2022/05/22 13:09:04;;;;;;;;;;;;;;;26.64;25.32;98810.16;4466114;32;34004;-91
2022/05/22 13:11:53;;;;;;;;;;;;;;;26.74;25.42;98813.09;4468038;32;34307;-81
2022/05/22 13:14:41;;;;;;;;;;;;;;;27.22;25.91;98806.69;4466225;32;34230;-82
2022/05/22 13:17:11;;;;;;;;;;;;;;;28.62;23.04;98804.84;4466256;32;34869;-80
2022/05/22 13:19:49;;;;;;;;;;;;;;;27.06;24.37;98800.56;4465785;32;34792;-81
2022/05/22 13:22:24;;;;;;;;;;;;;;;27.27;25.25;98809.06;4464283;32;35075;-91
2022/05/22 13:24:52;;;;;;;;;;;;;;;26.89;24.62;98799.75;4466731;32;33457;-80